sensor_id;sensor_type;location;lat;lon;timestamp;pressure;altitude;pressure_sealevel;temperature;humidity
61086;BME280;46967;48.876;2.136;2023-07-08T00:01:42;101079.91;;;52.19;10.90
61086;BME280;46967;48.876;2.136;2023-07-08T00:04:07;101074.53;;;52.23;11.08
61086;BME280;46967;48.876;2.136;2023-07-08T00:06:34;101081.19;;;52.22;11.04
61086;BME280;46967;48.876;2.136;2023-07-08T00:09:00;101072.88;;;52.22;11.28
61086;BME280;46967;48.876;2.136;2023-07-08T00:11:26;101076.97;;;52.24;11.30
61086;BME280;46967;48.876;2.136;2023-07-08T00:13:52;101084.78;;;52.22;10.98
61086;BME280;46967;48.876;2.136;2023-07-08T00:16:18;101091.81;;;52.28;11.19
61086;BME280;46967;48.876;2.136;2023-07-08T00:18:44;101094.59;;;52.37;11.24
61086;BME280;46967;48.876;2.136;2023-07-08T00:21:15;101091.50;;;52.39;11.24
61086;BME280;46967;48.876;2.136;2023-07-08T00:23:45;101079.63;;;52.38;11.07
61086;BME280;46967;48.876;2.136;2023-07-08T00:26:17;101081.09;;;52.53;11.35
61086;BME280;46967;48.876;2.136;2023-07-08T00:28:44;101088.13;;;52.59;11.38
61086;BME280;46967;48.876;2.136;2023-07-08T00:31:10;101077.84;;;52.51;11.13
61086;BME280;46967;48.876;2.136;2023-07-08T00:33:35;101080.13;;;52.49;11.50
61086;BME280;46967;48.876;2.136;2023-07-08T00:36:01;101097.03;;;52.39;11.30
61086;BME280;46967;48.876;2.136;2023-07-08T00:38:27;101098.69;;;52.40;11.53
61086;BME280;46967;48.876;2.136;2023-07-08T00:41:09;101108.78;;;52.44;11.02
61086;BME280;46967;48.876;2.136;2023-07-08T00:43:44;101104.69;;;52.42;11.19
61086;BME280;46967;48.876;2.136;2023-07-08T00:48:47;101112.56;;;52.83;10.97
61086;BME280;46967;48.876;2.136;2023-07-08T00:51:13;101105.91;;;52.76;11.04
61086;BME280;46967;48.876;2.136;2023-07-08T00:53:39;101108.34;;;52.68;11.25
61086;BME280;46967;48.876;2.136;2023-07-08T00:56:17;101110.16;;;52.73;10.79
61086;BME280;46967;48.876;2.136;2023-07-08T00:58:56;101101.81;;;52.82;10.75
61086;BME280;46967;48.876;2.136;2023-07-08T01:01:23;101109.66;;;52.80;10.85
61086;BME280;46967;48.876;2.136;2023-07-08T01:04:02;101105.91;;;52.76;10.86
61086;BME280;46967;48.876;2.136;2023-07-08T01:06:32;101098.88;;;52.87;10.91
61086;BME280;46967;48.876;2.136;2023-07-08T01:09:03;101099.72;;;52.87;11.08
61086;BME280;46967;48.876;2.136;2023-07-08T01:11:31;101107.84;;;52.93;10.94
61086;BME280;46967;48.876;2.136;2023-07-08T01:13:59;101108.03;;;52.87;10.90
61086;BME280;46967;48.876;2.136;2023-07-08T01:16:25;101111.94;;;52.86;11.36
61086;BME280;46967;48.876;2.136;2023-07-08T01:18:51;101106.91;;;52.97;10.72
61086;BME280;46967;48.876;2.136;2023-07-08T01:21:38;101107.53;;;52.77;10.85
61086;BME280;46967;48.876;2.136;2023-07-08T01:24:07;101114.19;;;52.76;11.16
61086;BME280;46967;48.876;2.136;2023-07-08T01:26:35;101118.41;;;52.56;11.11
61086;BME280;46967;48.876;2.136;2023-07-08T01:29:03;101126.84;;;52.42;11.41
61086;BME280;46967;48.876;2.136;2023-07-08T01:31:28;101111.88;;;52.51;11.06
61086;BME280;46967;48.876;2.136;2023-07-08T01:33:54;101114.34;;;52.62;10.94
61086;BME280;46967;48.876;2.136;2023-07-08T01:36:20;101115.19;;;52.80;11.25
61086;BME280;46967;48.876;2.136;2023-07-08T01:38:46;101122.19;;;52.68;11.32
61086;BME280;46967;48.876;2.136;2023-07-08T01:41:14;101131.22;;;52.34;11.31
61086;BME280;46967;48.876;2.136;2023-07-08T01:43:39;101168.81;;;52.35;11.21
61086;BME280;46967;48.876;2.136;2023-07-08T01:46:13;101250.09;;;48.90;12.75
61086;BME280;46967;48.876;2.136;2023-07-08T01:48:41;101221.19;;;48.45;12.51
61086;BME280;46967;48.876;2.136;2023-07-08T01:51:10;101235.69;;;47.86;12.37
61086;BME280;46967;48.876;2.136;2023-07-08T01:53:39;101234.88;;;47.81;12.54
61086;BME280;46967;48.876;2.136;2023-07-08T01:56:05;101243.38;;;48.24;11.80
61086;BME280;46967;48.876;2.136;2023-07-08T01:58:31;101252.69;;;48.57;11.97
61086;BME280;46967;48.876;2.136;2023-07-08T02:00:56;101260.19;;;49.00;11.77
61086;BME280;46967;48.876;2.136;2023-07-08T02:03:22;101267.16;;;48.10;12.19
61086;BME280;46967;48.876;2.136;2023-07-08T02:05:48;101258.50;;;48.80;12.09
61086;BME280;46967;48.876;2.136;2023-07-08T02:08:14;101253.16;;;47.01;13.48
61086;BME280;46967;48.876;2.136;2023-07-08T02:10:43;101263.81;;;47.73;12.80
61086;BME280;46967;48.876;2.136;2023-07-08T02:13:09;101262.63;;;47.84;12.71
61086;BME280;46967;48.876;2.136;2023-07-08T02:15:35;101255.75;;;46.20;14.36
61086;BME280;46967;48.876;2.136;2023-07-08T02:18:00;101249.34;;;44.52;16.66
61086;BME280;46967;48.876;2.136;2023-07-08T02:20:25;101251.91;;;46.57;14.66
61086;BME280;46967;48.876;2.136;2023-07-08T02:22:51;101238.19;;;44.59;16.71
61086;BME280;46967;48.876;2.136;2023-07-08T02:25:17;101237.91;;;46.54;15.16
61086;BME280;46967;48.876;2.136;2023-07-08T02:27:42;101218.75;;;45.03;16.07
61086;BME280;46967;48.876;2.136;2023-07-08T02:30:08;101214.47;;;45.28;15.78
61086;BME280;46967;48.876;2.136;2023-07-08T02:32:34;101204.44;;;44.91;16.04
61086;BME280;46967;48.876;2.136;2023-07-08T02:35:01;101193.63;;;45.21;15.90
61086;BME280;46967;48.876;2.136;2023-07-08T02:37:28;101180.47;;;47.43;14.07
61086;BME280;46967;48.876;2.136;2023-07-08T02:39:54;101176.03;;;46.97;14.21
61086;BME280;46967;48.876;2.136;2023-07-08T02:42:19;101167.91;;;46.67;14.32
61086;BME280;46967;48.876;2.136;2023-07-08T02:44:45;101167.97;;;46.56;14.46
61086;BME280;46967;48.876;2.136;2023-07-08T02:47:10;101158.03;;;46.71;14.19
61086;BME280;46967;48.876;2.136;2023-07-08T02:49:35;101138.13;;;45.62;14.95
61086;BME280;46967;48.876;2.136;2023-07-08T02:52:00;101134.88;;;45.91;14.34
61086;BME280;46967;48.876;2.136;2023-07-08T02:54:26;101123.13;;;44.81;15.48
61086;BME280;46967;48.876;2.136;2023-07-08T02:56:51;101127.19;;;45.88;14.88
61086;BME280;46967;48.876;2.136;2023-07-08T02:59:16;101127.63;;;46.52;14.11
61086;BME280;46967;48.876;2.136;2023-07-08T03:01:42;101123.25;;;47.16;13.26
61086;BME280;46967;48.876;2.136;2023-07-08T03:04:09;101106.28;;;46.38;14.04
61086;BME280;46967;48.876;2.136;2023-07-08T03:06:40;101112.72;;;47.63;13.35
61086;BME280;46967;48.876;2.136;2023-07-08T03:09:05;101102.88;;;47.57;13.40
61086;BME280;46967;48.876;2.136;2023-07-08T03:11:31;101099.50;;;47.70;13.29
61086;BME280;46967;48.876;2.136;2023-07-08T03:13:56;101115.91;;;48.58;12.37
61086;BME280;46967;48.876;2.136;2023-07-08T03:16:21;101128.91;;;48.95;11.97
61086;BME280;46967;48.876;2.136;2023-07-08T03:18:47;101132.56;;;49.29;11.98
61086;BME280;46967;48.876;2.136;2023-07-08T03:21:14;101137.41;;;49.37;11.63
61086;BME280;46967;48.876;2.136;2023-07-08T03:23:40;101133.66;;;49.47;11.77
61086;BME280;46967;48.876;2.136;2023-07-08T03:26:06;101146.19;;;49.20;12.13
61086;BME280;46967;48.876;2.136;2023-07-08T03:28:31;101145.16;;;49.16;12.28
61086;BME280;46967;48.876;2.136;2023-07-08T03:30:56;101142.75;;;49.28;11.82
61086;BME280;46967;48.876;2.136;2023-07-08T03:33:22;101131.06;;;49.37;12.08
61086;BME280;46967;48.876;2.136;2023-07-08T03:35:49;101122.88;;;49.31;11.83
61086;BME280;46967;48.876;2.136;2023-07-08T03:38:14;101122.13;;;49.45;11.59
61086;BME280;46967;48.876;2.136;2023-07-08T03:40:40;101115.16;;;49.47;11.84
61086;BME280;46967;48.876;2.136;2023-07-08T03:43:05;101109.31;;;49.54;11.63
61086;BME280;46967;48.876;2.136;2023-07-08T03:45:30;101112.09;;;49.68;11.74
61086;BME280;46967;48.876;2.136;2023-07-08T03:47:56;101110.28;;;49.63;11.91
61086;BME280;46967;48.876;2.136;2023-07-08T03:50:24;101105.25;;;49.65;12.01
61086;BME280;46967;48.876;2.136;2023-07-08T03:52:51;101105.38;;;49.41;12.33
61086;BME280;46967;48.876;2.136;2023-07-08T03:55:17;101092.50;;;49.56;11.84
61086;BME280;46967;48.876;2.136;2023-07-08T03:57:42;101076.16;;;49.59;12.02
61086;BME280;46967;48.876;2.136;2023-07-08T04:00:09;101063.66;;;49.48;12.10
61086;BME280;46967;48.876;2.136;2023-07-08T04:02:35;101057.09;;;49.44;11.79
61086;BME280;46967;48.876;2.136;2023-07-08T04:05:02;101063.88;;;49.52;11.85
61086;BME280;46967;48.876;2.136;2023-07-08T04:07:28;101074.84;;;49.71;12.12
61086;BME280;46967;48.876;2.136;2023-07-08T04:09:54;101078.81;;;49.64;12.11
61086;BME280;46967;48.876;2.136;2023-07-08T04:12:19;101086.81;;;49.47;12.12
61086;BME280;46967;48.876;2.136;2023-07-08T04:14:45;101090.63;;;49.51;12.26
61086;BME280;46967;48.876;2.136;2023-07-08T04:17:11;101083.53;;;49.45;12.27
61086;BME280;46967;48.876;2.136;2023-07-08T04:19:36;101078.88;;;49.26;12.24
61086;BME280;46967;48.876;2.136;2023-07-08T04:22:04;101076.44;;;49.25;12.13
61086;BME280;46967;48.876;2.136;2023-07-08T04:24:31;101087.06;;;49.31;12.52
61086;BME280;46967;48.876;2.136;2023-07-08T04:26:57;101093.84;;;49.20;12.24
61086;BME280;46967;48.876;2.136;2023-07-08T04:29:23;101095.91;;;49.09;12.54
61086;BME280;46967;48.876;2.136;2023-07-08T04:31:49;101091.56;;;49.08;12.66
61086;BME280;46967;48.876;2.136;2023-07-08T04:34:15;101091.94;;;49.21;12.71
61086;BME280;46967;48.876;2.136;2023-07-08T04:36:41;101086.03;;;49.27;12.58
61086;BME280;46967;48.876;2.136;2023-07-08T04:39:08;101097.72;;;49.38;12.57
61086;BME280;46967;48.876;2.136;2023-07-08T04:41:36;101096.16;;;49.32;12.71
61086;BME280;46967;48.876;2.136;2023-07-08T04:44:06;101110.34;;;49.39;12.49
61086;BME280;46967;48.876;2.136;2023-07-08T04:46:36;101118.50;;;49.30;12.58
61086;BME280;46967;48.876;2.136;2023-07-08T04:49:04;101123.91;;;49.36;12.26
61086;BME280;46967;48.876;2.136;2023-07-08T04:51:30;101124.88;;;49.45;12.76
61086;BME280;46967;48.876;2.136;2023-07-08T04:53:55;101131.19;;;49.45;12.15
61086;BME280;46967;48.876;2.136;2023-07-08T04:56:20;101133.59;;;49.33;12.68
61086;BME280;46967;48.876;2.136;2023-07-08T04:58:47;101138.47;;;49.22;12.49
61086;BME280;46967;48.876;2.136;2023-07-08T05:01:12;101144.75;;;49.04;12.62
61086;BME280;46967;48.876;2.136;2023-07-08T05:03:38;101146.13;;;49.06;12.75
61086;BME280;46967;48.876;2.136;2023-07-08T05:06:03;101147.94;;;49.11;12.98
61086;BME280;46967;48.876;2.136;2023-07-08T05:08:28;101152.00;;;49.19;12.25
61086;BME280;46967;48.876;2.136;2023-07-08T05:10:54;101149.53;;;49.36;12.96
61086;BME280;46967;48.876;2.136;2023-07-08T05:13:20;101139.94;;;49.34;12.50
61086;BME280;46967;48.876;2.136;2023-07-08T05:15:48;101144.56;;;49.38;12.53
61086;BME280;46967;48.876;2.136;2023-07-08T05:18:13;101148.72;;;49.36;12.76
61086;BME280;46967;48.876;2.136;2023-07-08T05:20:38;101149.91;;;49.29;12.66
61086;BME280;46967;48.876;2.136;2023-07-08T05:23:04;101165.53;;;49.34;12.99
61086;BME280;46967;48.876;2.136;2023-07-08T05:25:32;101157.28;;;49.53;12.78
61086;BME280;46967;48.876;2.136;2023-07-08T05:27:57;101145.78;;;49.65;12.92
61086;BME280;46967;48.876;2.136;2023-07-08T05:30:23;101153.97;;;49.70;12.99
61086;BME280;46967;48.876;2.136;2023-07-08T05:32:48;101150.94;;;49.85;12.76
61086;BME280;46967;48.876;2.136;2023-07-08T05:35:14;101154.06;;;49.79;12.56
61086;BME280;46967;48.876;2.136;2023-07-08T05:37:39;101163.66;;;49.67;12.92
61086;BME280;46967;48.876;2.136;2023-07-08T05:40:07;101171.97;;;49.81;12.33
61086;BME280;46967;48.876;2.136;2023-07-08T05:42:33;101179.84;;;49.88;12.80
61086;BME280;46967;48.876;2.136;2023-07-08T05:44:58;101193.19;;;50.00;12.53
61086;BME280;46967;48.876;2.136;2023-07-08T05:47:23;101196.97;;;50.18;12.69
61086;BME280;46967;48.876;2.136;2023-07-08T05:49:49;101200.16;;;50.25;12.72
61086;BME280;46967;48.876;2.136;2023-07-08T05:52:14;101204.06;;;50.24;12.48
61086;BME280;46967;48.876;2.136;2023-07-08T05:54:41;101203.03;;;50.34;12.47
61086;BME280;46967;48.876;2.136;2023-07-08T05:57:08;101205.00;;;50.33;12.02
61086;BME280;46967;48.876;2.136;2023-07-08T05:59:35;101203.84;;;50.34;12.25
61086;BME280;46967;48.876;2.136;2023-07-08T06:02:01;101227.56;;;50.35;12.46
61086;BME280;46967;48.876;2.136;2023-07-08T06:04:27;101226.66;;;50.68;12.21
61086;BME280;46967;48.876;2.136;2023-07-08T06:06:53;101223.59;;;50.83;12.39
61086;BME280;46967;48.876;2.136;2023-07-08T06:09:18;101221.13;;;50.82;11.96
61086;BME280;46967;48.876;2.136;2023-07-08T06:11:44;101249.25;;;50.84;12.44
61086;BME280;46967;48.876;2.136;2023-07-08T06:14:09;101254.16;;;50.87;11.89
61086;BME280;46967;48.876;2.136;2023-07-08T06:16:34;101251.50;;;50.82;12.20
61086;BME280;46967;48.876;2.136;2023-07-08T06:19:00;101262.06;;;50.80;12.17
61086;BME280;46967;48.876;2.136;2023-07-08T06:21:25;101252.84;;;50.70;12.06
61086;BME280;46967;48.876;2.136;2023-07-08T06:23:51;101258.44;;;50.79;11.93
61086;BME280;46967;48.876;2.136;2023-07-08T06:26:16;101260.63;;;50.96;11.89
61086;BME280;46967;48.876;2.136;2023-07-08T06:28:41;101266.53;;;50.62;11.38
61086;BME280;46967;48.876;2.136;2023-07-08T06:31:07;101272.97;;;50.71;11.21
61086;BME280;46967;48.876;2.136;2023-07-08T06:33:32;101283.56;;;50.50;11.41
61086;BME280;46967;48.876;2.136;2023-07-08T06:35:57;101288.41;;;50.58;11.08
61086;BME280;46967;48.876;2.136;2023-07-08T06:38:23;101297.16;;;50.13;11.73
61086;BME280;46967;48.876;2.136;2023-07-08T06:40:48;101298.81;;;50.14;11.93
61086;BME280;46967;48.876;2.136;2023-07-08T06:43:13;101296.94;;;49.09;12.14
61086;BME280;46967;48.876;2.136;2023-07-08T06:45:40;101301.22;;;49.83;12.10
61086;BME280;46967;48.876;2.136;2023-07-08T06:48:06;101306.38;;;50.42;11.76
61086;BME280;46967;48.876;2.136;2023-07-08T06:50:31;101308.16;;;50.79;11.43
61086;BME280;46967;48.876;2.136;2023-07-08T06:52:56;101307.16;;;51.03;11.32
61086;BME280;46967;48.876;2.136;2023-07-08T06:55:23;101313.94;;;50.17;11.68
61086;BME280;46967;48.876;2.136;2023-07-08T06:57:49;101322.88;;;50.61;11.49
61086;BME280;46967;48.876;2.136;2023-07-08T07:00:17;101320.88;;;50.47;11.66
61086;BME280;46967;48.876;2.136;2023-07-08T07:02:43;101327.34;;;50.24;11.30
61086;BME280;46967;48.876;2.136;2023-07-08T07:05:10;101326.44;;;50.61;11.53
61086;BME280;46967;48.876;2.136;2023-07-08T07:07:35;101324.63;;;50.84;11.20
61086;BME280;46967;48.876;2.136;2023-07-08T07:10:00;101333.75;;;50.52;11.34
61086;BME280;46967;48.876;2.136;2023-07-08T07:12:26;101329.50;;;50.60;11.11
61086;BME280;46967;48.876;2.136;2023-07-08T07:14:52;101332.56;;;50.58;11.38
61086;BME280;46967;48.876;2.136;2023-07-08T07:17:22;101338.41;;;50.04;11.50
61086;BME280;46967;48.876;2.136;2023-07-08T07:19:47;101338.72;;;50.69;11.46
61086;BME280;46967;48.876;2.136;2023-07-08T07:22:13;101338.44;;;51.12;11.32
61086;BME280;46967;48.876;2.136;2023-07-08T07:24:38;101326.09;;;51.09;10.87
61086;BME280;46967;48.876;2.136;2023-07-08T07:27:04;101328.91;;;50.63;11.41
61086;BME280;46967;48.876;2.136;2023-07-08T07:29:47;101335.56;;;50.89;11.34
61086;BME280;46967;48.876;2.136;2023-07-08T07:32:14;101345.84;;;51.31;11.37
61086;BME280;46967;48.876;2.136;2023-07-08T07:34:40;101347.78;;;51.02;11.05
61086;BME280;46967;48.876;2.136;2023-07-08T07:37:11;101354.34;;;51.71;11.27
61086;BME280;46967;48.876;2.136;2023-07-08T07:39:37;101349.88;;;52.20;10.60
61086;BME280;46967;48.876;2.136;2023-07-08T07:42:02;101346.16;;;52.25;10.38
61086;BME280;46967;48.876;2.136;2023-07-08T07:44:28;101341.91;;;52.41;10.35
61086;BME280;46967;48.876;2.136;2023-07-08T07:46:53;101350.00;;;52.38;10.37
61086;BME280;46967;48.876;2.136;2023-07-08T07:49:20;101341.41;;;52.70;10.73
61086;BME280;46967;48.876;2.136;2023-07-08T07:51:45;101344.22;;;52.79;10.33
61086;BME280;46967;48.876;2.136;2023-07-08T07:54:11;101352.75;;;51.92;10.83
61086;BME280;46967;48.876;2.136;2023-07-08T07:56:36;101348.44;;;51.63;10.84
61086;BME280;46967;48.876;2.136;2023-07-08T07:59:02;101361.38;;;52.36;10.85
61086;BME280;46967;48.876;2.136;2023-07-08T08:01:28;101349.50;;;52.35;10.78
61086;BME280;46967;48.876;2.136;2023-07-08T08:03:53;101355.50;;;52.29;10.67
61086;BME280;46967;48.876;2.136;2023-07-08T08:06:18;101356.53;;;52.42;10.50
61086;BME280;46967;48.876;2.136;2023-07-08T08:08:45;101364.81;;;53.04;10.36
61086;BME280;46967;48.876;2.136;2023-07-08T08:11:11;101364.94;;;53.31;10.28
61086;BME280;46967;48.876;2.136;2023-07-08T08:13:37;101362.63;;;53.33;10.07
61086;BME280;46967;48.876;2.136;2023-07-08T08:16:03;101368.59;;;53.09;10.13
61086;BME280;46967;48.876;2.136;2023-07-08T08:18:29;101364.78;;;53.45;9.96
61086;BME280;46967;48.876;2.136;2023-07-08T08:20:54;101372.50;;;53.65;9.70
61086;BME280;46967;48.876;2.136;2023-07-08T08:23:20;101373.66;;;53.99;9.84
61086;BME280;46967;48.876;2.136;2023-07-08T08:25:45;101376.44;;;53.06;10.25
61086;BME280;46967;48.876;2.136;2023-07-08T08:28:11;101384.78;;;53.24;10.75
61086;BME280;46967;48.876;2.136;2023-07-08T08:30:36;101390.03;;;53.34;9.80
61086;BME280;46967;48.876;2.136;2023-07-08T08:33:01;101383.22;;;53.58;9.87
61086;BME280;46967;48.876;2.136;2023-07-08T08:35:28;101386.34;;;54.09;9.44
61086;BME280;46967;48.876;2.136;2023-07-08T08:37:53;101385.72;;;53.68;9.54
61086;BME280;46967;48.876;2.136;2023-07-08T08:40:19;101387.09;;;52.14;10.78
61086;BME280;46967;48.876;2.136;2023-07-08T08:42:59;101384.06;;;53.85;9.76
61086;BME280;46967;48.876;2.136;2023-07-08T08:45:27;101377.56;;;53.05;10.05
61086;BME280;46967;48.876;2.136;2023-07-08T08:47:58;101388.94;;;53.53;9.74
61086;BME280;46967;48.876;2.136;2023-07-08T08:50:50;101378.69;;;53.04;10.25
61086;BME280;46967;48.876;2.136;2023-07-08T08:53:18;101381.31;;;53.76;9.78
61086;BME280;46967;48.876;2.136;2023-07-08T08:55:51;101389.66;;;52.87;10.68
61086;BME280;46967;48.876;2.136;2023-07-08T09:01:04;101404.25;;;53.50;10.21
61086;BME280;46967;48.876;2.136;2023-07-08T09:03:51;101412.44;;;54.43;9.80
61086;BME280;46967;48.876;2.136;2023-07-08T09:06:24;101393.59;;;54.75;9.59
61086;BME280;46967;48.876;2.136;2023-07-08T09:08:50;101393.25;;;55.45;9.14
61086;BME280;46967;48.876;2.136;2023-07-08T09:14:19;101384.72;;;54.90;9.21
61086;BME280;46967;48.876;2.136;2023-07-08T09:19:36;101376.34;;;54.99;9.40
61086;BME280;46967;48.876;2.136;2023-07-08T09:22:16;101394.81;;;55.33;9.08
61086;BME280;46967;48.876;2.136;2023-07-08T09:27:40;101385.72;;;54.86;9.50
61086;BME280;46967;48.876;2.136;2023-07-08T09:30:13;101388.63;;;55.28;8.98
61086;BME280;46967;48.876;2.136;2023-07-08T09:32:39;101376.03;;;55.94;8.98
61086;BME280;46967;48.876;2.136;2023-07-08T09:35:06;101384.03;;;55.95;8.41
61086;BME280;46967;48.876;2.136;2023-07-08T09:37:35;101385.53;;;55.71;8.90
61086;BME280;46967;48.876;2.136;2023-07-08T09:40:10;101391.50;;;55.82;9.05
61086;BME280;46967;48.876;2.136;2023-07-08T09:42:42;101384.81;;;55.02;9.31
61086;BME280;46967;48.876;2.136;2023-07-08T09:45:13;101388.81;;;54.84;9.25
61086;BME280;46967;48.876;2.136;2023-07-08T09:47:39;101386.50;;;54.86;9.00
61086;BME280;46967;48.876;2.136;2023-07-08T09:50:26;101393.59;;;54.75;9.21
61086;BME280;46967;48.876;2.136;2023-07-08T09:52:54;101392.53;;;54.97;9.40
61086;BME280;46967;48.876;2.136;2023-07-08T09:55:20;101382.06;;;55.75;9.07
61086;BME280;46967;48.876;2.136;2023-07-08T09:57:48;101381.56;;;55.51;9.15
61086;BME280;46967;48.876;2.136;2023-07-08T10:00:19;101380.47;;;56.07;8.94
61086;BME280;46967;48.876;2.136;2023-07-08T10:02:57;101368.25;;;56.20;9.51
61086;BME280;46967;48.876;2.136;2023-07-08T10:05:43;101370.66;;;56.80;8.79
61086;BME280;46967;48.876;2.136;2023-07-08T10:08:18;101362.78;;;57.19;9.14
61086;BME280;46967;48.876;2.136;2023-07-08T10:10:46;101365.09;;;56.55;8.37
61086;BME280;46967;48.876;2.136;2023-07-08T10:13:37;101365.91;;;57.05;8.16
61086;BME280;46967;48.876;2.136;2023-07-08T10:18:50;101376.69;;;57.31;8.65
61086;BME280;46967;48.876;2.136;2023-07-08T10:21:36;101374.28;;;57.58;8.39
61086;BME280;46967;48.876;2.136;2023-07-08T10:26:50;101377.50;;;57.07;8.32
61086;BME280;46967;48.876;2.136;2023-07-08T10:29:24;101381.34;;;56.78;8.33
61086;BME280;46967;48.876;2.136;2023-07-08T10:34:54;101384.41;;;55.85;8.89
61086;BME280;46967;48.876;2.136;2023-07-08T10:37:32;101385.31;;;56.89;8.19
61086;BME280;46967;48.876;2.136;2023-07-08T10:50:18;101387.38;;;57.29;7.99
61086;BME280;46967;48.876;2.136;2023-07-08T10:53:03;101384.72;;;58.02;7.49
61086;BME280;46967;48.876;2.136;2023-07-08T10:55:46;101380.38;;;57.76;7.40
61086;BME280;46967;48.876;2.136;2023-07-08T10:58:25;101365.63;;;57.47;7.84
61086;BME280;46967;48.876;2.136;2023-07-08T11:03:45;101366.66;;;57.55;7.69
61086;BME280;46967;48.876;2.136;2023-07-08T11:06:18;101365.47;;;57.56;7.66
61086;BME280;46967;48.876;2.136;2023-07-08T11:08:53;101362.41;;;58.18;7.12
61086;BME280;46967;48.876;2.136;2023-07-08T11:13:56;101366.50;;;58.20;7.56
61086;BME280;46967;48.876;2.136;2023-07-08T11:16:31;101362.78;;;58.64;7.44
61086;BME280;46967;48.876;2.136;2023-07-08T11:19:09;101357.44;;;56.89;8.02
61086;BME280;46967;48.876;2.136;2023-07-08T11:21:40;101357.69;;;57.90;7.54
61086;BME280;46967;48.876;2.136;2023-07-08T11:24:35;101357.88;;;59.09;7.66
61086;BME280;46967;48.876;2.136;2023-07-08T11:27:25;101362.53;;;59.21;7.11
61086;BME280;46967;48.876;2.136;2023-07-08T11:30:03;101355.22;;;59.32;7.18
61086;BME280;46967;48.876;2.136;2023-07-08T11:32:31;101353.53;;;59.67;7.09
61086;BME280;46967;48.876;2.136;2023-07-08T11:34:59;101351.06;;;59.85;6.76
61086;BME280;46967;48.876;2.136;2023-07-08T11:37:26;101354.16;;;59.21;6.31
61086;BME280;46967;48.876;2.136;2023-07-08T11:39:55;101350.88;;;58.99;6.30
61086;BME280;46967;48.876;2.136;2023-07-08T11:42:40;101340.47;;;59.55;6.33
61086;BME280;46967;48.876;2.136;2023-07-08T11:45:18;101343.03;;;59.60;6.23
61086;BME280;46967;48.876;2.136;2023-07-08T11:47:49;101338.03;;;59.53;6.80
61086;BME280;46967;48.876;2.136;2023-07-08T11:52:53;101338.44;;;58.97;6.82
61086;BME280;46967;48.876;2.136;2023-07-08T11:55:35;101338.91;;;58.67;7.16
61086;BME280;46967;48.876;2.136;2023-07-08T11:58:01;101333.06;;;59.43;6.62
61086;BME280;46967;48.876;2.136;2023-07-08T12:00:30;101329.56;;;59.10;6.73
61086;BME280;46967;48.876;2.136;2023-07-08T12:02:59;101322.09;;;59.54;7.01
61086;BME280;46967;48.876;2.136;2023-07-08T12:07:56;101324.63;;;60.02;6.05
61086;BME280;46967;48.876;2.136;2023-07-08T12:10:38;101324.25;;;60.03;5.92
61086;BME280;46967;48.876;2.136;2023-07-08T12:13:12;101312.59;;;60.24;6.09
61086;BME280;46967;48.876;2.136;2023-07-08T12:15:38;101311.56;;;60.59;5.58
61086;BME280;46967;48.876;2.136;2023-07-08T12:20:37;101311.59;;;61.20;5.86
61086;BME280;46967;48.876;2.136;2023-07-08T12:23:09;101303.78;;;60.22;6.13
61086;BME280;46967;48.876;2.136;2023-07-08T12:25:36;101310.16;;;60.46;5.81
61086;BME280;46967;48.876;2.136;2023-07-08T12:28:02;101315.69;;;61.26;6.15
61086;BME280;46967;48.876;2.136;2023-07-08T12:30:29;101313.22;;;61.21;5.81
61086;BME280;46967;48.876;2.136;2023-07-08T12:32:55;101308.16;;;61.00;6.37
61086;BME280;46967;48.876;2.136;2023-07-08T12:35:32;101314.69;;;61.41;5.96
61086;BME280;46967;48.876;2.136;2023-07-08T12:38:01;101314.34;;;61.84;5.35
61086;BME280;46967;48.876;2.136;2023-07-08T12:40:28;101317.84;;;61.36;5.59
61086;BME280;46967;48.876;2.136;2023-07-08T12:42:55;101315.22;;;61.54;5.54
61086;BME280;46967;48.876;2.136;2023-07-08T12:45:23;101312.38;;;61.51;5.18
61086;BME280;46967;48.876;2.136;2023-07-08T12:47:49;101312.69;;;61.80;5.24
61086;BME280;46967;48.876;2.136;2023-07-08T12:50:15;101320.28;;;61.38;5.20
61086;BME280;46967;48.876;2.136;2023-07-08T12:52:43;101307.44;;;61.74;5.31
61086;BME280;46967;48.876;2.136;2023-07-08T12:55:09;101307.72;;;61.28;5.27
61086;BME280;46967;48.876;2.136;2023-07-08T12:57:35;101305.09;;;61.42;5.47
61086;BME280;46967;48.876;2.136;2023-07-08T13:00:02;101301.28;;;61.28;5.70
61086;BME280;46967;48.876;2.136;2023-07-08T13:02:30;101292.00;;;61.95;5.50
61086;BME280;46967;48.876;2.136;2023-07-08T13:05:00;101302.72;;;61.45;5.23
61086;BME280;46967;48.876;2.136;2023-07-08T13:07:40;101293.94;;;60.09;5.44
61086;BME280;46967;48.876;2.136;2023-07-08T13:10:07;101301.94;;;60.57;5.21
61086;BME280;46967;48.876;2.136;2023-07-08T13:12:40;101312.59;;;59.39;6.09
61086;BME280;46967;48.876;2.136;2023-07-08T13:15:12;101311.03;;;59.80;5.75
61086;BME280;46967;48.876;2.136;2023-07-08T13:17:39;101317.47;;;60.27;5.71
61086;BME280;46967;48.876;2.136;2023-07-08T13:20:12;101303.25;;;60.16;5.67
61086;BME280;46967;48.876;2.136;2023-07-08T13:22:39;101296.06;;;60.96;5.93
61086;BME280;46967;48.876;2.136;2023-07-08T13:25:13;101294.06;;;61.60;5.28
61086;BME280;46967;48.876;2.136;2023-07-08T13:27:39;101288.47;;;62.05;4.94
61086;BME280;46967;48.876;2.136;2023-07-08T13:30:17;101275.25;;;62.06;5.66
61086;BME280;46967;48.876;2.136;2023-07-08T13:32:43;101276.16;;;61.35;4.51
61086;BME280;46967;48.876;2.136;2023-07-08T13:35:41;101284.44;;;61.62;4.64
61086;BME280;46967;48.876;2.136;2023-07-08T13:38:19;101284.59;;;61.04;5.19
61086;BME280;46967;48.876;2.136;2023-07-08T13:40:47;101284.22;;;61.06;4.96
61086;BME280;46967;48.876;2.136;2023-07-08T13:43:13;101284.09;;;60.68;5.30
61086;BME280;46967;48.876;2.136;2023-07-08T13:45:44;101287.03;;;60.49;5.35